Time;durP1;ratioP1;P1;durP2;ratioP2;P2;SDS_P1;SDS_P2;PMS_P1;PMS_P2;Temp;Humidity;BMP_temperature;BMP_pressure;BME280_temperature;BME280_humidity;BME280_pressure;Samples;Min_cycle;Max_cycle;Signal;HPM_P1;HPM_P2
2022/10/28 00:01:21;;;;;;;15.55;6.53;;;;;;;13.40;100.00;101673.56;5094596;28;20058;-58
2022/10/28 00:03:52;;;;;;;12.20;6.50;;;;;;;13.38;100.00;101671.97;5094617;28;20048;-58
2022/10/28 00:06:24;;;;;;;11.63;6.45;;;;;;;13.34;100.00;101664.19;5093080;28;20048;-58
2022/10/28 00:08:53;;;;;;;14.70;6.82;;;;;;;13.31;100.00;101660.94;5088342;28;20052;-58
2022/10/28 00:11:23;;;;;;;17.02;7.68;;;;;;;13.25;100.00;101664.81;5091251;28;20466;-57
2022/10/28 00:13:53;;;;;;;14.80;6.72;;;;;;;13.23;100.00;101665.84;5092459;28;20117;-57
2022/10/28 00:16:23;;;;;;;12.27;6.38;;;;;;;13.19;100.00;101663.38;5090348;28;20048;-57
2022/10/28 00:18:52;;;;;;;13.07;6.85;;;;;;;13.16;100.00;101670.66;5089107;28;20071;-57
2022/10/28 00:21:24;;;;;;;11.57;7.03;;;;;;;13.16;100.00;101662.75;5090496;28;20044;-58
2022/10/28 00:23:52;;;;;;;10.80;7.15;;;;;;;13.12;100.00;101664.72;5089781;28;20039;-57
2022/10/28 00:26:23;;;;;;;16.60;7.40;;;;;;;13.10;100.00;101663.13;5094229;28;20497;-57
2022/10/28 00:28:53;;;;;;;14.38;7.20;;;;;;;13.09;100.00;101662.28;5092168;28;20540;-56
2022/10/28 00:31:23;;;;;;;12.70;7.85;;;;;;;13.06;100.00;101665.13;5089818;28;20048;-59
2022/10/28 00:33:51;;;;;;;17.20;8.23;;;;;;;13.02;100.00;101671.53;5092698;28;20050;-56
2022/10/28 00:36:22;;;;;;;11.77;6.55;;;;;;;12.99;100.00;101667.28;5090196;28;20048;-58
2022/10/28 00:38:53;;;;;;;16.38;7.20;;;;;;;12.95;100.00;101665.78;5091670;28;20509;-57
2022/10/28 00:41:23;;;;;;;13.93;7.13;;;;;;;12.94;100.00;101669.38;5091251;28;20055;-58
2022/10/28 00:43:53;;;;;;;12.57;7.30;;;;;;;12.90;100.00;101662.56;5089500;28;20056;-58
2022/10/28 00:46:28;;;;;;;12.75;7.18;;;;;;;12.89;100.00;101654.75;5092830;28;20483;-58
2022/10/28 00:49:01;;;;;;;11.02;6.85;;;;;;;12.87;100.00;101657.50;5089792;28;20644;-56
2022/10/28 00:51:33;;;;;;;13.27;7.05;;;;;;;12.84;100.00;101657.66;5090139;28;20112;-57
2022/10/28 00:54:03;;;;;;;12.40;6.90;;;;;;;12.81;100.00;101660.50;5091935;28;20051;-58
2022/10/28 00:56:37;;;;;;;14.77;7.28;;;;;;;12.78;100.00;101660.69;5093466;28;20507;-57
2022/10/28 00:59:11;;;;;;;14.45;6.90;;;;;;;12.76;100.00;101659.94;5093319;28;20060;-58
2022/10/28 01:01:39;;;;;;;14.35;7.55;;;;;;;12.72;100.00;101661.94;5090609;28;20097;-57
2022/10/28 01:04:08;;;;;;;11.40;6.85;;;;;;;12.69;100.00;101656.81;5089597;28;20040;-57
2022/10/28 01:06:39;;;;;;;17.30;6.97;;;;;;;12.62;100.00;101647.59;5092545;28;20048;-58
2022/10/28 01:09:07;;;;;;;14.25;6.82;;;;;;;12.57;100.00;101649.66;5093180;28;20089;-58
2022/10/28 01:11:56;;;;;;;13.38;6.85;;;;;;;12.52;100.00;101644.66;5093125;28;20043;-57
2022/10/28 01:14:34;;;;;;;11.13;6.93;;;;;;;12.53;100.00;101630.53;5088692;28;20048;-57
2022/10/28 01:17:23;;;;;;;15.05;7.05;;;;;;;12.49;100.00;101627.22;5091474;28;20048;-58
2022/10/28 01:20:33;;;;;;;16.92;7.03;;;;;;;12.52;100.00;101628.84;5089528;28;20552;-57
2022/10/28 01:23:18;;;;;;;13.57;7.40;;;;;;;12.47;100.00;101620.34;5047556;28;20056;-58
2022/10/28 01:26:03;;;;;;;13.18;6.97;;;;;;;12.44;100.00;101616.09;5092617;28;20105;-58
2022/10/28 01:29:21;;;;;;;14.02;8.13;;;;;;;12.45;100.00;101620.44;5092976;28;20048;-58
2022/10/28 01:31:54;;;;;;;11.25;6.95;;;;;;;12.40;100.00;101614.59;5086692;28;20510;-59
2022/10/28 01:34:30;;;;;;;12.88;6.53;;;;;;;12.37;100.00;101611.31;5088377;28;20047;-56
2022/10/28 01:37:06;;;;;;;13.48;6.57;;;;;;;12.36;100.00;101609.59;5092821;28;20044;-57
2022/10/28 01:39:45;;;;;;;13.07;6.80;;;;;;;12.32;100.00;101606.28;5092901;28;20421;-57
2022/10/28 01:42:23;;;;;;;14.50;6.97;;;;;;;12.28;100.00;101610.06;5092055;28;20052;-57
2022/10/28 01:45:00;;;;;;;12.45;6.90;;;;;;;12.23;100.00;101605.06;5092135;28;20487;-57
2022/10/28 01:47:35;;;;;;;12.35;6.32;;;;;;;12.20;100.00;101601.75;5088956;28;20055;-56
2022/10/28 01:50:08;;;;;;;11.50;7.03;;;;;;;12.17;100.00;101594.88;5090670;28;20044;-57
2022/10/28 01:52:38;;;;;;;11.65;6.70;;;;;;;12.18;100.00;101601.84;5088564;28;20321;-56
2022/10/28 01:55:15;;;;;;;14.50;7.20;;;;;;;12.18;100.00;101599.22;5086869;28;20487;-57
2022/10/28 01:57:45;;;;;;;11.75;6.50;;;;;;;12.16;100.00;101601.09;5088744;28;20056;-56
2022/10/28 02:00:14;;;;;;;13.88;6.70;;;;;;;12.12;100.00;101596.94;5088880;28;20059;-56
2022/10/28 02:02:46;;;;;;;11.10;6.57;;;;;;;12.10;100.00;101604.09;5090399;28;20071;-58
2022/10/28 02:05:37;;;;;;;10.93;6.47;;;;;;;12.11;100.00;101598.72;5089204;28;20085;-56
2022/10/28 02:08:20;;;;;;;11.85;7.07;;;;;;;12.08;100.00;101595.41;5088974;28;20044;-57
2022/10/28 02:10:58;;;;;;;11.75;7.00;;;;;;;12.07;100.00;101593.75;5090297;28;20096;-58
2022/10/28 02:13:36;;;;;;;12.07;7.20;;;;;;;12.03;100.00;101600.13;5088155;28;20461;-57
2022/10/28 02:16:13;;;;;;;12.75;7.22;;;;;;;12.01;100.00;101597.56;5090546;28;20506;-58
2022/10/28 02:18:48;;;;;;;11.98;7.13;;;;;;;11.98;100.00;101595.13;5091088;28;20159;-58
2022/10/28 02:21:24;;;;;;;13.35;7.47;;;;;;;11.91;100.00;101591.97;5088971;28;20040;-56
2022/10/28 02:23:58;;;;;;;12.45;7.07;;;;;;;11.91;100.00;101589.31;5087360;28;20105;-58
2022/10/28 02:26:35;;;;;;;13.30;7.40;;;;;;;11.92;100.00;101587.56;5091186;28;20036;-58
2022/10/28 02:29:10;;;;;;;11.25;7.18;;;;;;;11.86;100.00;101588.75;5091913;28;20048;-56
2022/10/28 02:31:44;;;;;;;12.02;7.10;;;;;;;11.86;100.00;101591.38;5090188;28;20426;-57
2022/10/28 02:34:18;;;;;;;12.73;6.85;;;;;;;11.86;100.00;101586.09;5088236;28;20048;-57
2022/10/28 02:36:55;;;;;;;11.25;6.93;;;;;;;11.83;100.00;101586.28;5091629;28;20055;-56
2022/10/28 02:39:30;;;;;;;13.25;6.47;;;;;;;11.81;100.00;101583.75;5090672;28;20101;-57
2022/10/28 02:42:02;;;;;;;14.27;7.20;;;;;;;11.77;100.00;101576.13;5088269;28;20044;-57
2022/10/28 02:44:35;;;;;;;12.18;7.13;;;;;;;11.73;100.00;101575.44;5088059;28;20078;-56
2022/10/28 02:47:09;;;;;;;11.80;5.97;;;;;;;11.73;100.00;101583.34;5091023;28;20043;-57
2022/10/28 02:49:43;;;;;;;12.98;6.80;;;;;;;11.71;100.00;101579.13;5088748;28;20093;-52
2022/10/28 02:52:11;;;;;;;13.30;6.55;;;;;;;11.69;100.00;101573.09;5089519;28;20538;-51
2022/10/28 02:54:43;;;;;;;13.63;7.25;;;;;;;11.67;100.00;101581.09;5093402;28;20048;-51
2022/10/28 02:57:16;;;;;;;13.82;7.13;;;;;;;11.69;100.00;101579.22;5091746;28;20056;-52
2022/10/28 02:59:52;;;;;;;14.73;7.32;;;;;;;11.67;100.00;101571.38;5095409;28;20047;-51
2022/10/28 03:02:21;;;;;;;12.95;6.85;;;;;;;11.66;100.00;101566.22;5095546;28;20368;-51
2022/10/28 03:04:51;;;;;;;10.85;6.95;;;;;;;11.62;100.00;101564.69;5095525;28;20040;-52
2022/10/28 03:07:20;;;;;;;10.95;6.55;;;;;;;11.63;100.00;101559.34;5095317;28;20131;-53
2022/10/28 03:09:50;;;;;;;13.20;7.25;;;;;;;11.61;100.00;101565.63;5095378;28;20051;-50
2022/10/28 03:12:18;;;;;;;13.45;7.10;;;;;;;11.58;100.00;101560.53;5095552;28;20086;-52
2022/10/28 03:14:48;;;;;;;11.43;7.45;;;;;;;11.55;100.00;101558.06;5095338;28;20048;-53
2022/10/28 03:17:16;;;;;;;15.05;6.90;;;;;;;11.52;100.00;101559.13;5095191;28;20078;-52
2022/10/28 03:19:44;;;;;;;11.27;6.63;;;;;;;11.55;100.00;101558.06;5095148;28;20046;-48
2022/10/28 03:22:14;;;;;;;10.55;6.47;;;;;;;11.58;100.00;101555.28;5095205;28;20080;-49
2022/10/28 03:24:42;;;;;;;11.95;6.65;;;;;;;11.53;100.00;101558.16;5095004;28;20097;-48
2022/10/28 03:27:10;;;;;;;12.85;6.72;;;;;;;11.48;100.00;101563.72;5094700;28;20523;-52
2022/10/28 03:29:38;;;;;;;14.05;6.53;;;;;;;11.48;100.00;101561.06;5094807;28;20131;-52
2022/10/28 03:32:12;;;;;;;13.02;6.78;;;;;;;11.48;100.00;101554.97;5093085;28;20047;-49
2022/10/28 03:34:40;;;;;;;12.27;6.75;;;;;;;11.42;100.00;101556.13;5093185;28;20052;-51
2022/10/28 03:37:09;;;;;;;10.77;6.80;;;;;;;11.39;100.00;101560.75;5094516;28;20395;-51
2022/10/28 03:39:39;;;;;;;16.58;7.03;;;;;;;11.40;100.00;101554.53;5094493;28;20291;-49
2022/10/28 03:42:07;;;;;;;13.82;6.78;;;;;;;11.38;100.00;101548.53;5091483;28;20130;-50
2022/10/28 03:44:35;;;;;;;12.32;7.60;;;;;;;11.34;100.00;101542.56;5092661;28;20401;-52
2022/10/28 03:47:06;;;;;;;13.48;7.80;;;;;;;11.31;100.00;101551.50;5093141;28;20052;-53
2022/10/28 03:49:34;;;;;;;13.88;7.88;;;;;;;11.31;100.00;101543.59;5090558;28;20044;-52
2022/10/28 03:52:02;;;;;;;12.45;7.53;;;;;;;11.31;100.00;101540.94;5094738;28;20113;-48
2022/10/28 03:54:30;;;;;;;12.38;7.05;;;;;;;11.29;100.00;101542.00;5094884;28;20052;-51
2022/10/28 03:57:00;;;;;;;13.40;7.80;;;;;;;11.29;100.00;101545.47;5093507;28;20143;-51
2022/10/28 03:59:28;;;;;;;10.98;7.40;;;;;;;11.26;100.00;101545.66;5094539;28;20063;-49
2022/10/28 04:01:56;;;;;;;13.05;7.00;;;;;;;11.24;100.00;101541.41;5094821;28;20183;-53
2022/10/28 04:04:24;;;;;;;12.75;7.32;;;;;;;11.22;100.00;101541.50;5093752;28;20043;-51
2022/10/28 04:06:57;;;;;;;12.52;7.80;;;;;;;11.18;100.00;101539.13;5093027;28;20494;-51
2022/10/28 04:09:25;;;;;;;13.73;6.80;;;;;;;11.20;100.00;101539.88;5093920;28;20062;-51
2022/10/28 04:11:53;;;;;;;12.20;6.90;;;;;;;11.17;100.00;101543.53;5093636;28;20528;-47
2022/10/28 04:14:23;;;;;;;10.70;6.50;;;;;;;11.13;100.00;101544.66;5094003;28;20044;-52
2022/10/28 04:16:51;;;;;;;13.02;6.55;;;;;;;11.14;100.00;101547.19;5092627;28;20140;-51
2022/10/28 04:19:19;;;;;;;11.27;6.47;;;;;;;11.14;100.00;101544.56;5094036;28;20135;-52
2022/10/28 04:21:48;;;;;;;14.15;6.65;;;;;;;11.15;100.00;101540.13;5093939;28;20048;-52
2022/10/28 04:24:16;;;;;;;13.40;6.82;;;;;;;11.15;100.00;101537.50;5093816;28;20044;-53
2022/10/28 04:26:44;;;;;;;13.88;6.45;;;;;;;11.15;100.00;101540.13;5093709;28;20052;-51
2022/10/28 04:29:12;;;;;;;10.45;6.63;;;;;;;11.12;100.00;101537.69;5093720;28;20105;-49
2022/10/28 04:31:41;;;;;;;13.43;6.60;;;;;;;11.16;100.00;101540.03;5094091;28;20132;-52
2022/10/28 04:34:09;;;;;;;11.30;6.43;;;;;;;11.15;100.00;101540.13;5093661;28;20510;-53
2022/10/28 04:36:37;;;;;;;12.43;6.85;;;;;;;11.13;100.00;101544.66;5093595;28;20529;-52
2022/10/28 04:39:05;;;;;;;10.48;6.30;;;;;;;11.11;100.00;101542.09;5093521;28;20506;-53
2022/10/28 04:41:33;;;;;;;14.27;6.45;;;;;;;11.11;100.00;101542.09;5091940;28;20082;-53
2022/10/28 04:44:05;;;;;;;11.57;6.47;;;;;;;11.10;100.00;101544.84;5093016;28;20494;-53
2022/10/28 04:46:33;;;;;;;14.90;7.07;;;;;;;11.10;100.00;101544.84;5093114;28;20560;-49
2022/10/28 04:49:02;;;;;;;14.10;6.45;;;;;;;11.10;100.00;101548.31;5093086;28;20554;-52
2022/10/28 04:51:30;;;;;;;12.75;6.68;;;;;;;11.07;100.00;101539.72;5091683;28;20044;-52
2022/10/28 04:53:59;;;;;;;10.15;5.80;;;;;;;11.08;100.00;101542.25;5088799;28;20486;-52
2022/10/28 04:56:27;;;;;;;13.65;7.05;;;;;;;11.07;100.00;101540.59;5089606;28;20048;-53
2022/10/28 04:58:55;;;;;;;12.55;7.20;;;;;;;11.07;100.00;101532.69;5093721;28;20046;-53
2022/10/28 05:01:24;;;;;;;13.23;6.75;;;;;;;11.07;100.00;101534.44;5092329;28;20491;-52
2022/10/28 05:03:52;;;;;;;13.43;7.20;;;;;;;11.06;100.00;101533.63;5089468;28;20122;-52
2022/10/28 05:06:21;;;;;;;17.98;7.20;;;;;;;11.06;100.00;101544.16;5090609;28;20465;-52
2022/10/28 05:08:49;;;;;;;16.52;7.22;;;;;;;11.08;100.00;101541.41;5092952;28;20044;-52
2022/10/28 05:11:19;;;;;;;14.65;7.15;;;;;;;11.06;100.00;101535.41;5093236;28;20054;-51
2022/10/28 05:13:47;;;;;;;15.40;7.60;;;;;;;11.10;100.00;101540.41;5093213;28;20093;-49
2022/10/28 05:16:15;;;;;;;14.43;7.82;;;;;;;11.16;100.00;101533.94;5092079;28;20052;-56
2022/10/28 05:18:43;;;;;;;18.60;8.15;;;;;;;11.22;100.00;101538.00;5091922;28;20042;-54
2022/10/28 05:21:17;;;;;;;15.32;7.43;;;;;;;11.23;100.00;101537.06;5092995;28;20040;-56
2022/10/28 05:23:47;;;;;;;18.15;6.90;;;;;;;11.22;100.00;101535.38;5093439;28;20040;-57
2022/10/28 05:26:16;;;;;;;16.95;8.05;;;;;;;11.25;100.00;101538.69;5092460;28;20064;-57
2022/10/28 05:28:44;;;;;;;16.98;8.45;;;;;;;11.26;100.00;101540.41;5092469;28;20040;-56
2022/10/28 05:31:12;;;;;;;21.15;8.38;;;;;;;11.27;100.00;101526.28;5091578;28;20056;-56
2022/10/28 05:33:40;;;;;;;16.45;11.00;;;;;;;11.30;100.00;101525.25;5092962;28;20101;-56
2022/10/28 05:36:08;;;;;;;20.67;9.90;;;;;;;11.40;100.00;101525.56;5092573;28;20047;-57
2022/10/28 05:38:36;;;;;;;18.85;9.43;;;;;;;11.42;100.00;101528.97;5088121;28;20056;-54
2022/10/28 05:41:06;;;;;;;19.98;9.80;;;;;;;11.43;100.00;101526.25;5089384;28;20545;-51
2022/10/28 05:43:34;;;;;;;15.48;9.82;;;;;;;11.45;100.00;101520.88;5089103;28;20494;-50
2022/10/28 05:46:02;;;;;;;15.80;8.90;;;;;;;11.45;100.00;101515.63;5089918;28;20036;-53
2022/10/28 05:48:30;;;;;;;18.80;8.27;;;;;;;11.44;100.00;101521.84;5092438;28;20097;-50
2022/10/28 05:50:58;;;;;;;19.00;8.50;;;;;;;11.45;100.00;101526.16;5092626;28;20072;-52
2022/10/28 05:53:26;;;;;;;15.77;8.32;;;;;;;11.44;100.00;101524.47;5092340;28;20083;-52
2022/10/28 05:55:54;;;;;;;18.45;8.43;;;;;;;11.48;100.00;101516.28;5092699;28;20059;-50
2022/10/28 05:58:24;;;;;;;17.48;7.88;;;;;;;11.51;100.00;101525.81;5091959;28;20052;-52
2022/10/28 06:00:52;;;;;;;17.10;8.32;;;;;;;11.51;100.00;101523.16;5091121;28;20048;-53
2022/10/28 06:03:20;;;;;;;19.60;8.02;;;;;;;11.51;100.00;101531.06;5091320;28;20072;-51
2022/10/28 06:05:49;;;;;;;14.30;7.35;;;;;;;11.52;100.00;101524.00;5089155;28;20036;-54
2022/10/28 06:08:17;;;;;;;15.70;7.95;;;;;;;11.49;100.00;101527.66;5089937;28;20044;-51
2022/10/28 06:10:51;;;;;;;16.63;8.70;;;;;;;11.50;100.00;101529.38;5090394;28;20040;-51
2022/10/28 06:13:23;;;;;;;20.42;8.10;;;;;;;11.60;100.00;101530.53;5086895;28;20047;-53
2022/10/28 06:15:52;;;;;;;17.42;8.65;;;;;;;11.56;100.00;101525.53;5092185;28;20521;-55
2022/10/28 06:18:20;;;;;;;12.80;7.70;;;;;;;11.56;100.00;101530.78;5091043;28;20488;-55
2022/10/28 06:20:52;;;;;;;17.98;8.05;;;;;;;11.55;100.00;101532.59;5087708;28;20739;-56
2022/10/28 06:23:21;;;;;;;20.13;8.82;;;;;;;11.57;100.00;101540.41;5090881;28;20048;-56
2022/10/28 06:25:49;;;;;;;15.15;8.00;;;;;;;11.54;100.00;101527.41;5092096;28;20378;-55
2022/10/28 06:28:17;;;;;;;17.55;8.27;;;;;;;11.58;100.00;101531.56;5090709;28;20113;-56
2022/10/28 06:30:49;;;;;;;17.85;8.20;;;;;;;11.71;100.00;101529.91;5093231;28;20066;-56
2022/10/28 06:33:17;;;;;;;14.98;8.27;;;;;;;11.78;100.00;101540.91;5092491;28;20479;-56
2022/10/28 06:35:46;;;;;;;19.10;9.18;;;;;;;11.79;100.00;101535.56;5092780;28;20067;-56
2022/10/28 06:38:14;;;;;;;18.85;7.82;;;;;;;11.79;100.00;101547.88;5094752;28;20059;-56
2022/10/28 06:40:42;;;;;;;17.48;8.38;;;;;;;11.78;100.00;101547.06;5096169;28;20127;-56
2022/10/28 06:43:12;;;;;;;24.45;12.18;;;;;;;11.80;100.00;101536.41;5095241;28;20408;-56
2022/10/28 06:45:40;;;;;;;28.35;14.43;;;;;;;11.81;100.00;101535.47;5092596;28;20483;-55
2022/10/28 06:48:10;;;;;;;20.15;10.63;;;;;;;11.84;100.00;101551.09;5092765;28;20069;-51
2022/10/28 06:50:40;;;;;;;18.40;8.73;;;;;;;11.86;100.00;101548.38;5094972;28;20058;-50
2022/10/28 06:53:09;;;;;;;19.35;8.07;;;;;;;11.86;100.00;101554.47;5095805;28;20044;-51
2022/10/28 06:55:37;;;;;;;19.45;7.63;;;;;;;11.89;100.00;101556.09;5094639;28;20051;-51
2022/10/28 06:58:05;;;;;;;14.68;7.50;;;;;;;11.94;100.00;101564.56;5095424;28;20048;-47
2022/10/28 07:00:33;;;;;;;19.92;8.38;;;;;;;11.96;100.00;101560.94;5095420;28;20044;-50
2022/10/28 07:03:02;;;;;;;14.02;7.82;;;;;;;11.98;100.00;101559.09;5095384;28;20071;-49
2022/10/28 07:05:34;;;;;;;16.38;8.40;;;;;;;12.03;100.00;101557.97;5094755;28;20173;-50
2022/10/28 07:08:02;;;;;;;16.80;8.25;;;;;;;12.07;100.00;101562.09;5095847;28;20040;-50
2022/10/28 07:10:30;;;;;;;18.10;8.52;;;;;;;12.15;100.00;101560.69;5095362;28;20529;-51
2022/10/28 07:12:58;;;;;;;16.60;8.65;;;;;;;12.19;100.00;101558.72;5095396;28;20081;-52
2022/10/28 07:15:26;;;;;;;24.15;10.10;;;;;;;12.24;100.00;101556.63;5095316;28;20080;-49
2022/10/28 07:17:55;;;;;;;20.92;10.02;;;;;;;12.33;100.00;101549.97;5095109;28;20542;-52
2022/10/28 07:20:24;;;;;;;35.33;9.05;;;;;;;12.39;100.00;101556.66;5090188;28;20395;-51
2022/10/28 07:22:57;;;;;;;18.60;8.20;;;;;;;12.48;100.00;101553.47;5092556;28;20521;-49
2022/10/28 07:25:25;;;;;;;16.17;8.95;;;;;;;12.56;100.00;101556.47;5094024;28;20044;-51
2022/10/28 07:27:56;;;;;;;16.70;8.35;;;;;;;12.68;100.00;101562.78;5094676;28;20078;-50
2022/10/28 07:30:24;;;;;;;15.07;8.90;;;;;;;12.73;100.00;101562.47;5092886;28;20051;-52
2022/10/28 07:32:52;;;;;;;19.02;9.40;;;;;;;12.82;100.00;101561.91;5091936;28;20043;-50
2022/10/28 07:35:21;;;;;;;24.05;8.77;;;;;;;12.93;100.00;101564.69;5093808;28;20040;-50
2022/10/28 07:37:49;;;;;;;16.20;7.88;;;;;;;13.03;100.00;101562.31;5094976;28;20044;-52
2022/10/28 07:40:20;;;;;;;20.02;8.57;;;;;;;13.18;100.00;101560.47;5093936;28;20123;-49
2022/10/28 07:42:48;;;;;;;19.48;7.35;;;;;;;13.30;100.00;101558.84;5095086;28;20547;-51
2022/10/28 07:45:16;;;;;;;16.20;8.18;;;;;;;13.41;100.00;101558.16;5094817;28;20043;-49
2022/10/28 07:47:45;;;;;;;17.73;8.20;;;;;;;13.49;100.00;101553.22;5094860;28;20052;-52
2022/10/28 07:50:13;;;;;;;16.92;7.80;;;;;;;13.56;100.00;101559.78;5094523;28;20043;-53
2022/10/28 07:52:41;;;;;;;17.23;8.38;;;;;;;13.67;100.00;101551.16;5094473;28;20086;-53
2022/10/28 07:55:11;;;;;;;21.42;8.90;;;;;;;13.74;100.00;101552.41;5094497;28;20044;-53
2022/10/28 07:57:40;;;;;;;19.98;8.10;;;;;;;13.94;100.00;101559.00;5094488;28;20048;-55
2022/10/28 08:00:09;;;;;;;16.13;7.95;;;;;;;14.05;100.00;101558.28;5094467;28;20076;-54
2022/10/28 08:02:38;;;;;;;19.67;8.40;;;;;;;14.30;100.00;101560.09;5094716;28;20445;-55
2022/10/28 08:05:06;;;;;;;20.77;8.13;;;;;;;14.35;100.00;101562.41;5094625;28;20043;-55
2022/10/28 08:07:36;;;;;;;17.02;7.60;;;;;;;14.37;100.00;101560.50;5094509;28;20545;-54
2022/10/28 08:10:07;;;;;;;20.52;8.02;;;;;;;14.45;100.00;101558.16;5093908;28;20036;-54
2022/10/28 08:12:35;;;;;;;20.35;8.68;;;;;;;14.60;100.00;101564.19;5092718;28;20048;-50
2022/10/28 08:15:08;;;;;;;17.80;7.68;;;;;;;14.88;100.00;101560.41;5094248;28;20035;-53
2022/10/28 08:17:36;;;;;;;;;;;;;;;15.10;100.00;101552.72;5094843;28;20054;-58
2022/10/28 08:20:07;;;;;;;16.40;6.78;;;;;;;15.19;100.00;101565.31;5093831;28;19942;-53
2022/10/28 08:22:37;;;;;;;17.48;7.03;;;;;;;15.24;100.00;101570.25;5093790;28;20054;-54
2022/10/28 08:25:06;;;;;;;18.20;7.78;;;;;;;15.32;100.00;101573.19;5092467;28;20105;-53
2022/10/28 08:27:34;;;;;;;17.95;7.78;;;;;;;15.37;100.00;101573.69;5093921;28;20082;-53
2022/10/28 08:30:02;;;;;;;18.42;7.07;;;;;;;15.46;100.00;101567.72;5093836;28;20036;-53
2022/10/28 08:32:31;;;;;;;20.13;7.40;;;;;;;15.54;100.00;101562.69;5093938;28;20082;-51
2022/10/28 08:34:59;;;;;;;20.20;7.38;;;;;;;15.53;100.00;101566.28;5093884;28;20039;-54
2022/10/28 08:37:28;;;;;;;19.92;7.53;;;;;;;15.61;100.00;101564.88;5093807;28;20047;-57
2022/10/28 08:39:56;;;;;;;17.98;6.80;;;;;;;15.68;100.00;101566.94;5093712;28;20366;-55
2022/10/28 08:42:35;;;;;;;18.05;7.25;;;;;;;15.76;100.00;101570.81;5093754;28;20054;-55
2022/10/28 08:45:24;;;;;;;20.30;7.05;;;;;;;15.82;100.00;101560.63;5093701;28;20071;-56
2022/10/28 08:48:10;;;;;;;12.85;6.18;;;;;;;15.92;100.00;101565.22;5093757;28;20075;-54
2022/10/28 08:50:44;;;;;;;16.90;6.40;;;;;;;15.96;100.00;101570.19;5093351;28;20044;-59
2022/10/28 08:53:16;;;;;;;14.18;6.22;;;;;;;16.19;100.00;101572.88;5093477;28;20093;-57
2022/10/28 08:55:48;;;;;;;15.25;6.28;;;;;;;16.25;100.00;101577.69;5093722;28;20051;-56
2022/10/28 08:58:21;;;;;;;16.23;6.15;;;;;;;16.27;100.00;101575.78;5092626;28;20059;-56
2022/10/28 09:00:53;;;;;;;17.33;6.25;;;;;;;16.32;100.00;101580.72;5090620;28;20105;-56
2022/10/28 09:03:26;;;;;;;13.80;5.82;;;;;;;16.42;100.00;101563.13;5091104;28;20528;-57
2022/10/28 09:06:01;;;;;;;20.88;6.53;;;;;;;16.55;100.00;101562.97;5093146;28;20472;-58
2022/10/28 09:08:33;;;;;;;20.55;6.40;;;;;;;16.62;100.00;101569.50;5089023;28;20506;-58
2022/10/28 09:11:19;;;;;;;15.27;6.07;;;;;;;16.73;100.00;101566.00;5089514;28;20135;-58
2022/10/28 09:14:08;;;;;;;14.90;5.88;;;;;;;16.86;100.00;101569.34;5091543;28;20044;-58
2022/10/28 09:16:44;;;;;;;13.77;6.45;;;;;;;17.03;100.00;101576.00;5093000;28;20171;-58
2022/10/28 09:19:40;;;;;;;18.63;6.05;;;;;;;17.26;100.00;101567.09;5092418;28;20036;-58
2022/10/28 09:22:20;;;;;;;14.98;5.45;;;;;;;17.46;100.00;101568.13;5090106;28;20040;-59
2022/10/28 09:24:53;;;;;;;14.68;5.78;;;;;;;17.73;100.00;101570.28;5088556;28;20086;-58
2022/10/28 09:27:49;;;;;;;18.33;5.68;;;;;;;18.00;100.00;101561.00;5089221;28;20445;-58
2022/10/28 09:30:32;;;;;;;13.60;5.95;;;;;;;18.21;100.00;101563.59;5090224;28;20047;-59
2022/10/28 09:33:13;;;;;;;15.80;5.45;;;;;;;18.44;100.00;101558.94;5090666;28;20071;-57
2022/10/28 09:35:45;;;;;;;19.15;6.15;;;;;;;18.60;100.00;101558.44;5089137;28;20044;-58
2022/10/28 09:38:25;;;;;;;14.02;5.18;;;;;;;18.75;100.00;101561.56;5092623;28;20155;-58
2022/10/28 09:40:59;;;;;;;13.50;5.78;;;;;;;18.86;100.00;101566.78;5091535;28;20050;-58
2022/10/28 09:43:32;;;;;;;15.10;6.05;;;;;;;18.94;100.00;101571.47;5088498;28;20068;-58
2022/10/28 09:46:06;;;;;;;14.57;5.75;;;;;;;19.00;100.00;101580.72;5089792;28;20047;-58
2022/10/28 09:48:37;;;;;;;17.92;5.95;;;;;;;19.08;100.00;101571.06;5092673;28;20379;-59
2022/10/28 09:51:16;;;;;;;13.15;5.65;;;;;;;19.17;100.00;101565.88;5092328;28;20079;-59
2022/10/28 09:53:52;;;;;;;13.82;5.60;;;;;;;19.30;100.00;101571.78;5092946;28;20066;-59
2022/10/28 09:56:20;;;;;;;19.23;6.13;;;;;;;19.55;100.00;101577.53;5092308;28;20051;-59
2022/10/28 09:58:49;;;;;;;17.20;6.13;;;;;;;19.85;100.00;101573.03;5092337;28;20059;-59
2022/10/28 10:01:18;;;;;;;21.55;6.55;;;;;;;19.91;100.00;101581.31;5091117;28;20048;-59
2022/10/28 10:03:48;;;;;;;16.33;6.15;;;;;;;20.00;100.00;101582.31;5088138;28;20309;-59
2022/10/28 10:06:20;;;;;;;17.08;5.70;;;;;;;19.83;100.00;101581.19;5087376;28;20079;-59
2022/10/28 10:08:48;;;;;;;14.38;5.45;;;;;;;19.83;100.00;101583.03;5087576;28;20048;-58
2022/10/28 10:11:27;;;;;;;13.18;6.10;;;;;;;19.82;100.00;101581.34;5091798;28;20044;-58
2022/10/28 10:13:58;;;;;;;19.05;6.07;;;;;;;19.90;100.00;101590.31;5090853;28;20051;-58
2022/10/28 10:16:38;;;;;;;15.70;6.00;;;;;;;19.98;100.00;101586.09;5087180;28;20052;-57
2022/10/28 10:19:09;;;;;;;17.92;6.07;;;;;;;20.16;100.00;101573.66;5090918;28;20063;-56
2022/10/28 10:21:44;;;;;;;15.88;5.75;;;;;;;20.15;100.00;101573.81;5091528;28;20051;-56
2022/10/28 10:24:28;;;;;;;17.98;5.80;;;;;;;20.18;100.00;101569.03;5092040;28;20047;-56
2022/10/28 10:26:58;;;;;;;17.25;6.07;;;;;;;20.19;100.00;101570.72;5092488;28;20526;-56
2022/10/28 10:29:26;;;;;;;18.13;5.95;;;;;;;20.55;100.00;101573.53;5092288;28;20516;-54
2022/10/28 10:32:08;;;;;;;16.88;6.10;;;;;;;20.67;100.00;101565.31;5091941;28;20467;-54
2022/10/28 10:34:36;;;;;;;16.85;5.43;;;;;;;21.03;100.00;101568.91;5091748;28;20076;-56
2022/10/28 10:37:18;;;;;;;14.30;5.22;;;;;;;21.13;100.00;101560.81;5089220;28;20040;-56
2022/10/28 10:40:02;;;;;;;14.27;5.63;;;;;;;21.05;100.00;101566.94;5088170;28;20048;-56
2022/10/28 10:42:30;;;;;;;16.27;6.00;;;;;;;21.03;100.00;101558.22;5091744;28;20044;-57
2022/10/28 10:45:02;;;;;;;16.50;5.85;;;;;;;21.09;100.00;101557.63;5092057;28;20040;-56
2022/10/28 10:47:30;;;;;;;14.95;5.75;;;;;;;21.20;100.00;101561.06;5091834;28;20093;-56
2022/10/28 10:50:21;;;;;;;16.38;5.47;;;;;;;21.42;100.00;101559.78;5091570;28;20139;-57
2022/10/28 10:52:56;;;;;;;16.75;5.63;;;;;;;21.63;100.00;101555.97;5089071;28;20055;-56
2022/10/28 10:55:31;;;;;;;;;;;;;;;21.56;100.00;101555.72;5088315;28;20093;-56
2022/10/28 10:57:59;;;;;;;16.55;5.57;;;;;;;21.50;100.00;101550.94;5088909;28;19920;-57
2022/10/28 11:00:32;;;;;;;18.90;5.65;;;;;;;21.45;100.00;101548.75;5090690;28;20051;-57
2022/10/28 11:03:01;;;;;;;14.13;4.90;;;;;;;21.56;100.00;101547.69;5089675;28;20044;-57
2022/10/28 11:05:30;;;;;;;14.85;5.53;;;;;;;21.80;100.00;101546.19;5088730;28;20064;-57
2022/10/28 11:08:06;;;;;;;15.40;4.90;;;;;;;22.07;100.00;101542.50;5092129;28;20693;-57
2022/10/28 11:10:35;;;;;;;12.88;5.20;;;;;;;22.32;100.00;101534.59;5091831;28;20036;-57
2022/10/28 11:13:23;;;;;;;15.15;5.00;;;;;;;22.25;100.00;101539.75;5091982;28;20048;-57
2022/10/28 11:16:00;;;;;;;15.38;5.00;;;;;;;22.18;100.00;101526.16;5095585;28;20055;-57
2022/10/28 11:18:30;;;;;;;11.80;4.72;;;;;;;22.37;100.00;101514.38;5095543;28;20055;-57
2022/10/28 11:21:06;;;;;;;13.55;5.25;;;;;;;22.57;100.00;101511.47;5095536;28;20051;-58
2022/10/28 11:23:49;;;;;;;14.60;4.93;;;;;;;22.79;100.00;101510.00;5095337;28;20048;-57
2022/10/28 11:26:19;;;;;;;13.15;4.97;;;;;;;22.49;100.00;101506.06;5095400;28;20091;-57
2022/10/28 11:29:08;;;;;;;14.40;4.80;;;;;;;22.39;100.00;101492.81;5095284;28;20082;-57
2022/10/28 11:31:56;;;;;;;16.02;4.85;;;;;;;22.37;100.00;101494.81;5095047;28;20052;-57